sensor_id;sensor_type;location;lat;lon;timestamp;pressure;altitude;pressure_sealevel;temperature;humidity
73383;BME280;61600;48.126;11.542;2023-04-08T00:00:11;95682.28;;;8.61;65.79
73383;BME280;61600;48.126;11.542;2023-04-08T00:02:37;95681.75;;;8.43;66.40
73383;BME280;61600;48.126;11.542;2023-04-08T00:05:03;95687.72;;;8.45;66.61
73383;BME280;61600;48.126;11.542;2023-04-08T00:07:32;95685.25;;;8.34;66.97
73383;BME280;61600;48.126;11.542;2023-04-08T00:09:58;95685.28;;;8.29;67.19
73383;BME280;61600;48.126;11.542;2023-04-08T00:12:24;95681.22;;;8.36;67.10
73383;BME280;61600;48.126;11.542;2023-04-08T00:14:49;95690.16;;;8.37;66.93
73383;BME280;61600;48.126;11.542;2023-04-08T00:17:15;95690.69;;;8.34;66.81
73383;BME280;61600;48.126;11.542;2023-04-08T00:19:44;95691.50;;;8.34;67.47
73383;BME280;61600;48.126;11.542;2023-04-08T00:22:10;95692.31;;;8.40;66.75
73383;BME280;61600;48.126;11.542;2023-04-08T00:24:36;95687.72;;;8.40;66.83
73383;BME280;61600;48.126;11.542;2023-04-08T00:27:05;95682.53;;;8.34;67.25
73383;BME280;61600;48.126;11.542;2023-04-08T00:29:31;95688.75;;;8.24;68.11
73383;BME280;61600;48.126;11.542;2023-04-08T00:31:56;95687.97;;;8.29;67.54
73383;BME280;61600;48.126;11.542;2023-04-08T00:34:23;95695.28;;;8.38;67.23
73383;BME280;61600;48.126;11.542;2023-04-08T00:36:52;95705.31;;;8.38;67.29
73383;BME280;61600;48.126;11.542;2023-04-08T00:39:17;95701.78;;;8.37;67.22
73383;BME280;61600;48.126;11.542;2023-04-08T00:41:43;95698.81;;;8.29;67.39
73383;BME280;61600;48.126;11.542;2023-04-08T00:44:09;95703.13;;;8.20;68.06
73383;BME280;61600;48.126;11.542;2023-04-08T00:46:38;95699.03;;;8.27;67.47
73383;BME280;61600;48.126;11.542;2023-04-08T00:49:05;95701.19;;;8.20;67.84
73383;BME280;61600;48.126;11.542;2023-04-08T00:51:32;95703.94;;;8.25;67.85
73383;BME280;61600;48.126;11.542;2023-04-08T00:54:01;95702.28;;;8.24;67.88
73383;BME280;61600;48.126;11.542;2023-04-08T00:56:30;95705.00;;;8.24;67.57
73383;BME280;61600;48.126;11.542;2023-04-08T00:58:59;95702.56;;;8.13;68.43
73383;BME280;61600;48.126;11.542;2023-04-08T01:04:01;95699.03;;;8.02;68.81
73383;BME280;61600;48.126;11.542;2023-04-08T01:06:44;95698.75;;;8.03;68.51
73383;BME280;61600;48.126;11.542;2023-04-08T01:09:17;95698.75;;;8.14;68.49
73383;BME280;61600;48.126;11.542;2023-04-08T01:11:44;95694.13;;;7.99;68.54
73383;BME280;61600;48.126;11.542;2023-04-08T01:14:11;95692.50;;;7.88;69.35
73383;BME280;61600;48.126;11.542;2023-04-08T01:16:40;95690.28;;;7.85;69.62
73383;BME280;61600;48.126;11.542;2023-04-08T01:19:26;95696.81;;;7.89;68.80
73383;BME280;61600;48.126;11.542;2023-04-08T01:22:01;95698.97;;;7.92;69.20
73383;BME280;61600;48.126;11.542;2023-04-08T01:24:30;95702.69;;;7.71;69.88
73383;BME280;61600;48.126;11.542;2023-04-08T01:26:59;95692.47;;;7.83;69.74
73383;BME280;61600;48.126;11.542;2023-04-08T01:29:26;95689.22;;;7.81;68.71
73383;BME280;61600;48.126;11.542;2023-04-08T01:31:53;95693.78;;;7.70;69.06
73383;BME280;61600;48.126;11.542;2023-04-08T01:34:20;95688.41;;;7.80;69.41
73383;BME280;61600;48.126;11.542;2023-04-08T01:36:46;95685.13;;;7.73;69.43
73383;BME280;61600;48.126;11.542;2023-04-08T01:39:15;95694.34;;;7.82;69.08
73383;BME280;61600;48.126;11.542;2023-04-08T01:41:45;95695.66;;;7.60;69.72
73383;BME280;61600;48.126;11.542;2023-04-08T01:44:13;95697.00;;;7.62;70.11
73383;BME280;61600;48.126;11.542;2023-04-08T01:46:41;95699.44;;;7.59;70.23
73383;BME280;61600;48.126;11.542;2023-04-08T01:49:08;95693.22;;;7.68;69.82
73383;BME280;61600;48.126;11.542;2023-04-08T01:51:36;95688.84;;;7.52;70.54
73383;BME280;61600;48.126;11.542;2023-04-08T01:54:02;95702.06;;;7.43;70.74
73383;BME280;61600;48.126;11.542;2023-04-08T01:56:29;95697.66;;;7.27;71.14
73383;BME280;61600;48.126;11.542;2023-04-08T01:58:59;95700.47;;;7.47;70.68
73383;BME280;61600;48.126;11.542;2023-04-08T02:01:27;95702.91;;;7.49;70.74
73383;BME280;61600;48.126;11.542;2023-04-08T02:03:54;95695.56;;;7.44;70.59
73383;BME280;61600;48.126;11.542;2023-04-08T02:06:22;95704.03;;;7.58;70.39
73383;BME280;61600;48.126;11.542;2023-04-08T02:08:48;95693.13;;;7.38;71.34
73383;BME280;61600;48.126;11.542;2023-04-08T02:11:14;95705.34;;;7.50;70.65
73383;BME280;61600;48.126;11.542;2023-04-08T02:13:40;95704.22;;;7.46;70.61
73383;BME280;61600;48.126;11.542;2023-04-08T02:16:15;95699.91;;;7.45;70.95
73383;BME280;61600;48.126;11.542;2023-04-08T02:18:54;95706.41;;;7.44;70.68
73383;BME280;61600;48.126;11.542;2023-04-08T02:21:21;95706.97;;;7.51;70.05
73383;BME280;61600;48.126;11.542;2023-04-08T02:23:53;95712.06;;;7.38;70.04
73383;BME280;61600;48.126;11.542;2023-04-08T02:26:21;95702.34;;;7.47;71.05
73383;BME280;61600;48.126;11.542;2023-04-08T02:28:48;95708.53;;;7.37;70.41
73383;BME280;61600;48.126;11.542;2023-04-08T02:31:16;95710.16;;;7.38;70.77
73383;BME280;61600;48.126;11.542;2023-04-08T02:33:45;95702.84;;;7.39;70.96
73383;BME280;61600;48.126;11.542;2023-04-08T02:36:12;95705.28;;;7.40;70.70
73383;BME280;61600;48.126;11.542;2023-04-08T02:38:38;95715.34;;;7.50;70.52
73383;BME280;61600;48.126;11.542;2023-04-08T02:41:05;95706.91;;;7.36;70.86
73383;BME280;61600;48.126;11.542;2023-04-08T02:43:30;95714.47;;;7.39;71.22
73383;BME280;61600;48.126;11.542;2023-04-08T02:45:58;95708.28;;;7.44;70.72
73383;BME280;61600;48.126;11.542;2023-04-08T02:48:29;95705.06;;;7.47;70.60
73383;BME280;61600;48.126;11.542;2023-04-08T02:50:55;95699.22;;;7.13;72.38
73383;BME280;61600;48.126;11.542;2023-04-08T02:53:23;95705.50;;;7.24;71.12
73383;BME280;61600;48.126;11.542;2023-04-08T02:55:49;95700.38;;;7.27;71.45
73383;BME280;61600;48.126;11.542;2023-04-08T02:58:15;95696.06;;;7.36;71.19
73383;BME280;61600;48.126;11.542;2023-04-08T03:00:40;95696.34;;;7.35;70.88
73383;BME280;61600;48.126;11.542;2023-04-08T03:03:06;95703.91;;;7.33;71.41
73383;BME280;61600;48.126;11.542;2023-04-08T03:05:32;95704.75;;;7.38;71.08
73383;BME280;61600;48.126;11.542;2023-04-08T03:08:00;95701.22;;;7.38;70.97
73383;BME280;61600;48.126;11.542;2023-04-08T03:10:25;95710.72;;;7.40;70.99
73383;BME280;61600;48.126;11.542;2023-04-08T03:12:51;95707.50;;;7.48;70.79
73383;BME280;61600;48.126;11.542;2023-04-08T03:15:17;95711.31;;;7.52;71.02
73383;BME280;61600;48.126;11.542;2023-04-08T03:17:43;95712.88;;;7.38;70.87
73383;BME280;61600;48.126;11.542;2023-04-08T03:20:11;95713.91;;;7.27;70.80
73383;BME280;61600;48.126;11.542;2023-04-08T03:22:37;95712.59;;;7.40;71.38
73383;BME280;61600;48.126;11.542;2023-04-08T03:25:03;95716.66;;;7.37;71.43
73383;BME280;61600;48.126;11.542;2023-04-08T03:27:31;95710.75;;;7.50;70.92
73383;BME280;61600;48.126;11.542;2023-04-08T03:29:57;95711.84;;;7.54;71.01
73383;BME280;61600;48.126;11.542;2023-04-08T03:32:23;95721.31;;;7.52;70.98
73383;BME280;61600;48.126;11.542;2023-04-08T03:34:49;95708.63;;;7.52;71.05
73383;BME280;61600;48.126;11.542;2023-04-08T03:37:18;95711.28;;;7.47;71.52
73383;BME280;61600;48.126;11.542;2023-04-08T03:39:43;95714.06;;;7.63;70.99
73383;BME280;61600;48.126;11.542;2023-04-08T03:42:09;95708.41;;;7.69;70.94
73383;BME280;61600;48.126;11.542;2023-04-08T03:44:35;95708.97;;;7.76;70.48
73383;BME280;61600;48.126;11.542;2023-04-08T03:47:04;95716.28;;;7.76;70.48
73383;BME280;61600;48.126;11.542;2023-04-08T03:49:30;95723.59;;;7.80;69.41
73383;BME280;61600;48.126;11.542;2023-04-08T03:51:55;95729.72;;;7.61;71.09
73383;BME280;61600;48.126;11.542;2023-04-08T03:54:21;95724.59;;;7.64;70.71
73383;BME280;61600;48.126;11.542;2023-04-08T03:56:48;95723.31;;;7.77;70.77
73383;BME280;61600;48.126;11.542;2023-04-08T03:59:18;95717.13;;;7.86;70.76
73383;BME280;61600;48.126;11.542;2023-04-08T04:01:43;95724.41;;;7.81;70.12
73383;BME280;61600;48.126;11.542;2023-04-08T04:04:09;95723.31;;;7.77;70.25
73383;BME280;61600;48.126;11.542;2023-04-08T04:06:35;95719.56;;;7.93;70.07
73383;BME280;61600;48.126;11.542;2023-04-08T04:09:02;95722.59;;;8.01;69.61
73383;BME280;61600;48.126;11.542;2023-04-08T04:11:28;95720.13;;;8.00;70.04
73383;BME280;61600;48.126;11.542;2023-04-08T04:13:53;95727.44;;;7.99;69.58
73383;BME280;61600;48.126;11.542;2023-04-08T04:16:19;95731.47;;;7.92;70.16
73383;BME280;61600;48.126;11.542;2023-04-08T04:18:45;95741.41;;;7.66;70.48
73383;BME280;61600;48.126;11.542;2023-04-08T04:21:11;95744.16;;;7.76;70.64
73383;BME280;61600;48.126;11.542;2023-04-08T04:23:36;95742.81;;;7.79;71.17
73383;BME280;61600;48.126;11.542;2023-04-08T04:26:11;95741.78;;;8.00;70.18
73383;BME280;61600;48.126;11.542;2023-04-08T04:28:37;95744.75;;;7.93;69.75
73383;BME280;61600;48.126;11.542;2023-04-08T04:31:03;95746.66;;;7.88;70.64
73383;BME280;61600;48.126;11.542;2023-04-08T04:33:32;95753.41;;;7.90;70.03
73383;BME280;61600;48.126;11.542;2023-04-08T04:35:58;95752.81;;;7.78;70.61
73383;BME280;61600;48.126;11.542;2023-04-08T04:38:24;95753.88;;;7.72;71.04
73383;BME280;61600;48.126;11.542;2023-04-08T04:40:50;95759.38;;;7.87;70.95
73383;BME280;61600;48.126;11.542;2023-04-08T04:43:16;95760.41;;;7.76;70.75
73383;BME280;61600;48.126;11.542;2023-04-08T04:45:44;95758.81;;;7.80;71.00
73383;BME280;61600;48.126;11.542;2023-04-08T04:48:10;95753.13;;;7.87;70.49
73383;BME280;61600;48.126;11.542;2023-04-08T04:50:36;95762.09;;;7.92;70.85
73383;BME280;61600;48.126;11.542;2023-04-08T04:53:04;95764.56;;;8.04;70.76
73383;BME280;61600;48.126;11.542;2023-04-08T04:55:30;95764.28;;;8.00;70.83
73383;BME280;61600;48.126;11.542;2023-04-08T04:57:56;95767.53;;;8.02;70.77
73383;BME280;61600;48.126;11.542;2023-04-08T05:00:22;95766.47;;;8.09;70.26
73383;BME280;61600;48.126;11.542;2023-04-08T05:02:48;95768.91;;;8.05;70.64
73383;BME280;61600;48.126;11.542;2023-04-08T05:05:13;95766.22;;;8.15;70.46
73383;BME280;61600;48.126;11.542;2023-04-08T05:07:39;95762.44;;;8.21;70.31
73383;BME280;61600;48.126;11.542;2023-04-08T05:10:05;95770.38;;;8.33;69.86
73383;BME280;61600;48.126;11.542;2023-04-08T05:12:31;95769.50;;;8.27;69.97
73383;BME280;61600;48.126;11.542;2023-04-08T05:14:57;95761.94;;;8.34;70.14
73383;BME280;61600;48.126;11.542;2023-04-08T05:17:28;95770.91;;;8.35;70.11
73383;BME280;61600;48.126;11.542;2023-04-08T05:19:54;95761.19;;;8.44;69.95
73383;BME280;61600;48.126;11.542;2023-04-08T05:22:20;95763.88;;;8.49;69.29
73383;BME280;61600;48.126;11.542;2023-04-08T05:24:45;95759.53;;;8.48;69.31
73383;BME280;61600;48.126;11.542;2023-04-08T05:27:11;95765.00;;;8.58;68.83
73383;BME280;61600;48.126;11.542;2023-04-08T05:29:40;95773.09;;;8.48;69.05
73383;BME280;61600;48.126;11.542;2023-04-08T05:32:06;95772.03;;;8.74;68.64
73383;BME280;61600;48.126;11.542;2023-04-08T05:34:31;95768.78;;;8.67;68.93
73383;BME280;61600;48.126;11.542;2023-04-08T05:37:00;95772.31;;;8.78;68.70
73383;BME280;61600;48.126;11.542;2023-04-08T05:39:26;95765.53;;;8.80;68.85
73383;BME280;61600;48.126;11.542;2023-04-08T05:41:51;95767.94;;;8.51;69.35
73383;BME280;61600;48.126;11.542;2023-04-08T05:44:17;95768.25;;;8.75;69.08
73383;BME280;61600;48.126;11.542;2023-04-08T05:46:46;95766.59;;;8.69;69.12
73383;BME280;61600;48.126;11.542;2023-04-08T05:49:11;95770.69;;;8.82;68.97
73383;BME280;61600;48.126;11.542;2023-04-08T05:51:38;95776.66;;;8.89;68.66
73383;BME280;61600;48.126;11.542;2023-04-08T05:54:04;95769.31;;;9.04;68.74
73383;BME280;61600;48.126;11.542;2023-04-08T05:56:33;95772.31;;;9.03;68.13
73383;BME280;61600;48.126;11.542;2023-04-08T05:58:59;95767.69;;;8.98;68.41
73383;BME280;61600;48.126;11.542;2023-04-08T06:01:25;95773.69;;;8.95;68.43
73383;BME280;61600;48.126;11.542;2023-04-08T06:03:51;95777.75;;;8.98;68.37
73383;BME280;61600;48.126;11.542;2023-04-08T06:06:17;95776.91;;;8.97;68.65
73383;BME280;61600;48.126;11.542;2023-04-08T06:08:43;95783.97;;;8.73;69.14
73383;BME280;61600;48.126;11.542;2023-04-08T06:11:08;95775.31;;;9.07;68.55
73383;BME280;61600;48.126;11.542;2023-04-08T06:13:34;95781.81;;;9.06;68.43
73383;BME280;61600;48.126;11.542;2023-04-08T06:16:09;95789.13;;;9.10;68.60
73383;BME280;61600;48.126;11.542;2023-04-08T06:18:35;95786.69;;;9.19;67.77
73383;BME280;61600;48.126;11.542;2023-04-08T06:21:01;95783.97;;;9.19;68.15
73383;BME280;61600;48.126;11.542;2023-04-08T06:23:27;95784.75;;;9.29;67.72
73383;BME280;61600;48.126;11.542;2023-04-08T06:25:53;95793.47;;;9.31;67.89
73383;BME280;61600;48.126;11.542;2023-04-08T06:28:18;95791.03;;;9.35;67.81
73383;BME280;61600;48.126;11.542;2023-04-08T06:30:44;95788.56;;;9.33;67.47
73383;BME280;61600;48.126;11.542;2023-04-08T06:33:10;95789.13;;;9.25;67.53
73383;BME280;61600;48.126;11.542;2023-04-08T06:35:36;95796.72;;;9.38;67.39
73383;BME280;61600;48.126;11.542;2023-04-08T06:38:02;95789.69;;;9.17;67.86
73383;BME280;61600;48.126;11.542;2023-04-08T06:40:31;95787.22;;;9.26;67.73
73383;BME280;61600;48.126;11.542;2023-04-08T06:42:57;95792.41;;;9.17;67.70
73383;BME280;61600;48.126;11.542;2023-04-08T06:45:22;95795.94;;;9.18;67.70
73383;BME280;61600;48.126;11.542;2023-04-08T06:47:51;95801.91;;;9.15;67.71
73383;BME280;61600;48.126;11.542;2023-04-08T06:50:17;95805.44;;;9.00;67.78
73383;BME280;61600;48.126;11.542;2023-04-08T06:52:43;95812.47;;;8.91;68.20
73383;BME280;61600;48.126;11.542;2023-04-08T06:55:11;95811.94;;;9.04;67.62
73383;BME280;61600;48.126;11.542;2023-04-08T06:57:37;95811.38;;;9.12;67.72
73383;BME280;61600;48.126;11.542;2023-04-08T07:00:03;95809.75;;;9.16;66.91
73383;BME280;61600;48.126;11.542;2023-04-08T07:02:29;95805.94;;;9.22;67.51
73383;BME280;61600;48.126;11.542;2023-04-08T07:04:55;95817.09;;;9.21;67.35
73383;BME280;61600;48.126;11.542;2023-04-08T07:07:21;95813.28;;;9.32;66.63
73383;BME280;61600;48.126;11.542;2023-04-08T07:09:49;95819.78;;;8.95;67.38
73383;BME280;61600;48.126;11.542;2023-04-08T07:12:14;95815.16;;;9.41;66.19
73383;BME280;61600;48.126;11.542;2023-04-08T07:14:40;95817.59;;;9.48;65.70
73383;BME280;61600;48.126;11.542;2023-04-08T07:17:09;95823.59;;;9.35;65.79
73383;BME280;61600;48.126;11.542;2023-04-08T07:19:37;95823.88;;;9.28;66.18
73383;BME280;61600;48.126;11.542;2023-04-08T07:22:03;95817.88;;;9.36;66.11
73383;BME280;61600;48.126;11.542;2023-04-08T07:24:29;95823.56;;;9.40;65.66
73383;BME280;61600;48.126;11.542;2023-04-08T07:26:57;95823.06;;;9.28;65.63
73383;BME280;61600;48.126;11.542;2023-04-08T07:29:23;95830.91;;;9.19;66.52
73383;BME280;61600;48.126;11.542;2023-04-08T07:31:51;95823.84;;;9.33;65.99
73383;BME280;61600;48.126;11.542;2023-04-08T07:34:17;95835.81;;;9.17;66.31
73383;BME280;61600;48.126;11.542;2023-04-08T07:36:43;95834.44;;;9.35;65.69
73383;BME280;61600;48.126;11.542;2023-04-08T07:39:09;95834.72;;;9.38;65.12
73383;BME280;61600;48.126;11.542;2023-04-08T07:41:44;95833.59;;;9.39;63.82
73383;BME280;61600;48.126;11.542;2023-04-08T07:44:10;95835.25;;;9.56;62.68
73383;BME280;61600;48.126;11.542;2023-04-08T07:46:36;95844.97;;;9.72;62.59
73383;BME280;61600;48.126;11.542;2023-04-08T07:49:03;95847.97;;;9.80;60.93
73383;BME280;61600;48.126;11.542;2023-04-08T07:51:29;95839.25;;;9.88;60.54
73383;BME280;61600;48.126;11.542;2023-04-08T07:53:55;95848.19;;;9.94;59.84
73383;BME280;61600;48.126;11.542;2023-04-08T07:56:21;95848.78;;;9.81;56.56
73383;BME280;61600;48.126;11.542;2023-04-08T07:58:47;95851.50;;;9.71;54.53
73383;BME280;61600;48.126;11.542;2023-04-08T08:03:40;95845.47;;;9.89;54.09
73383;BME280;61600;48.126;11.542;2023-04-08T08:06:06;95840.56;;;10.01;53.51
73383;BME280;61600;48.126;11.542;2023-04-08T08:08:32;95844.69;;;9.88;52.36
73383;BME280;61600;48.126;11.542;2023-04-08T08:11:00;95860.16;;;9.83;51.71
73383;BME280;61600;48.126;11.542;2023-04-08T08:13:25;95855.88;;;9.41;52.80
73383;BME280;61600;48.126;11.542;2023-04-08T08:15:51;95855.56;;;9.78;52.21
73383;BME280;61600;48.126;11.542;2023-04-08T08:18:18;95859.66;;;9.81;51.89
73383;BME280;61600;48.126;11.542;2023-04-08T08:20:44;95865.91;;;9.61;52.43
73383;BME280;61600;48.126;11.542;2023-04-08T08:23:09;95860.22;;;9.47;53.34
73383;BME280;61600;48.126;11.542;2023-04-08T08:25:35;95863.75;;;9.23;54.75
73383;BME280;61600;48.126;11.542;2023-04-08T08:28:01;95861.84;;;9.33;55.40
73383;BME280;61600;48.126;11.542;2023-04-08T08:30:27;95865.66;;;9.37;56.10
73383;BME280;61600;48.126;11.542;2023-04-08T08:32:52;95870.56;;;9.25;56.34
73383;BME280;61600;48.126;11.542;2023-04-08T08:35:18;95869.75;;;9.15;57.34
73383;BME280;61600;48.126;11.542;2023-04-08T08:37:44;95881.88;;;8.87;57.91
73383;BME280;61600;48.126;11.542;2023-04-08T08:40:10;95879.19;;;8.82;57.46
73383;BME280;61600;48.126;11.542;2023-04-08T08:42:37;95874.31;;;8.89;57.14
73383;BME280;61600;48.126;11.542;2023-04-08T08:45:04;95888.13;;;8.82;56.39
73383;BME280;61600;48.126;11.542;2023-04-08T08:47:31;95887.88;;;8.89;56.28
73383;BME280;61600;48.126;11.542;2023-04-08T08:49:57;95897.88;;;8.68;56.05
73383;BME280;61600;48.126;11.542;2023-04-08T08:52:23;95888.41;;;8.86;56.15
73383;BME280;61600;48.126;11.542;2023-04-08T08:54:56;95890.59;;;8.89;56.28
73383;BME280;61600;48.126;11.542;2023-04-08T08:57:22;95891.91;;;8.76;56.87
73383;BME280;61600;48.126;11.542;2023-04-08T08:59:48;95891.44;;;9.20;57.54
73383;BME280;61600;48.126;11.542;2023-04-08T09:02:34;95891.13;;;9.01;58.10
73383;BME280;61600;48.126;11.542;2023-04-08T09:05:01;95888.72;;;9.10;57.26
73383;BME280;61600;48.126;11.542;2023-04-08T09:07:29;95892.22;;;8.95;58.66
73383;BME280;61600;48.126;11.542;2023-04-08T09:09:56;95894.41;;;9.08;59.01
73383;BME280;61600;48.126;11.542;2023-04-08T09:12:23;95900.34;;;8.95;59.69
73383;BME280;61600;48.126;11.542;2023-04-08T09:14:50;95897.09;;;8.88;60.60
73383;BME280;61600;48.126;11.542;2023-04-08T09:17:34;95904.91;;;8.64;60.51
73383;BME280;61600;48.126;11.542;2023-04-08T09:23:01;95908.88;;;8.36;61.17
73383;BME280;61600;48.126;11.542;2023-04-08T09:25:31;95910.84;;;8.61;60.69
73383;BME280;61600;48.126;11.542;2023-04-08T09:27:57;95910.53;;;8.47;60.63
73383;BME280;61600;48.126;11.542;2023-04-08T09:30:24;95909.69;;;8.37;61.43
73383;BME280;61600;48.126;11.542;2023-04-08T09:33:00;95908.88;;;8.41;61.06
73383;BME280;61600;48.126;11.542;2023-04-08T09:35:31;95914.19;;;8.21;61.54
73383;BME280;61600;48.126;11.542;2023-04-08T09:37:57;95912.94;;;8.39;61.11
73383;BME280;61600;48.126;11.542;2023-04-08T09:40:23;95913.13;;;8.27;60.55
73383;BME280;61600;48.126;11.542;2023-04-08T09:42:53;95926.16;;;8.30;60.97
73383;BME280;61600;48.126;11.542;2023-04-08T09:45:20;95912.63;;;8.30;61.04
73383;BME280;61600;48.126;11.542;2023-04-08T09:47:55;95916.25;;;8.51;60.56
73383;BME280;61600;48.126;11.542;2023-04-08T09:50:26;95915.19;;;8.57;60.02
73383;BME280;61600;48.126;11.542;2023-04-08T09:53:00;95913.53;;;8.56;59.25
73383;BME280;61600;48.126;11.542;2023-04-08T09:55:29;95907.88;;;8.63;58.86
73383;BME280;61600;48.126;11.542;2023-04-08T09:58:18;95916.03;;;8.73;59.01
73383;BME280;61600;48.126;11.542;2023-04-08T10:00:48;95915.72;;;8.59;59.18
73383;BME280;61600;48.126;11.542;2023-04-08T10:03:34;95910.94;;;8.86;58.04
73383;BME280;61600;48.126;11.542;2023-04-08T10:06:02;95908.53;;;9.10;57.98
73383;BME280;61600;48.126;11.542;2023-04-08T10:08:29;95910.31;;;8.64;57.61
73383;BME280;61600;48.126;11.542;2023-04-08T10:10:56;95914.31;;;8.51;58.37
73383;BME280;61600;48.126;11.542;2023-04-08T10:13:22;95903.84;;;8.75;58.62
73383;BME280;61600;48.126;11.542;2023-04-08T10:15:48;95904.41;;;8.97;58.02
73383;BME280;61600;48.126;11.542;2023-04-08T10:20:44;95900.38;;;9.10;58.25
73383;BME280;61600;48.126;11.542;2023-04-08T10:23:15;95902.03;;;9.21;57.34
73383;BME280;61600;48.126;11.542;2023-04-08T10:25:44;95898.22;;;9.32;56.81
73383;BME280;61600;48.126;11.542;2023-04-08T10:33:16;95892.22;;;9.05;57.48
73383;BME280;61600;48.126;11.542;2023-04-08T10:35:47;95889.00;;;9.33;57.77
73383;BME280;61600;48.126;11.542;2023-04-08T10:38:14;95892.25;;;9.40;57.49
73383;BME280;61600;48.126;11.542;2023-04-08T10:40:41;95898.75;;;9.65;57.22
73383;BME280;61600;48.126;11.542;2023-04-08T10:43:11;95896.88;;;9.50;57.06
73383;BME280;61600;48.126;11.542;2023-04-08T10:45:41;95897.13;;;9.74;56.34
73383;BME280;61600;48.126;11.542;2023-04-08T10:48:11;95891.72;;;9.74;55.72
73383;BME280;61600;48.126;11.542;2023-04-08T10:50:37;95894.38;;;9.89;55.67
73383;BME280;61600;48.126;11.542;2023-04-08T10:53:03;95885.69;;;9.82;56.22
73383;BME280;61600;48.126;11.542;2023-04-08T10:55:29;95891.94;;;9.87;56.03
73383;BME280;61600;48.126;11.542;2023-04-08T10:58:06;95881.41;;;9.71;56.36
73383;BME280;61600;48.126;11.542;2023-04-08T11:00:37;95890.88;;;9.78;56.71
73383;BME280;61600;48.126;11.542;2023-04-08T11:03:05;95899.34;;;9.57;57.08
73383;BME280;61600;48.126;11.542;2023-04-08T11:05:32;95896.59;;;9.41;58.11
73383;BME280;61600;48.126;11.542;2023-04-08T11:07:59;95895.00;;;9.25;58.08
73383;BME280;61600;48.126;11.542;2023-04-08T11:10:25;95900.97;;;9.42;58.42
73383;BME280;61600;48.126;11.542;2023-04-08T11:12:55;95892.78;;;9.12;58.71
73383;BME280;61600;48.126;11.542;2023-04-08T11:15:24;95900.91;;;9.02;59.28
73383;BME280;61600;48.126;11.542;2023-04-08T11:17:50;95906.28;;;8.72;59.69
73383;BME280;61600;48.126;11.542;2023-04-08T11:20:16;95897.88;;;8.83;59.59
73383;BME280;61600;48.126;11.542;2023-04-08T11:22:46;95901.41;;;8.84;60.44
73383;BME280;61600;48.126;11.542;2023-04-08T11:25:12;95901.97;;;8.86;60.58
73383;BME280;61600;48.126;11.542;2023-04-08T11:27:37;95914.16;;;8.83;60.11
73383;BME280;61600;48.126;11.542;2023-04-08T11:30:05;95903.88;;;8.85;60.65
73383;BME280;61600;48.126;11.542;2023-04-08T11:32:34;95898.19;;;8.92;60.67
73383;BME280;61600;48.126;11.542;2023-04-08T11:35:03;95905.78;;;8.90;60.90
73383;BME280;61600;48.126;11.542;2023-04-08T11:37:39;95897.66;;;8.95;60.63
73383;BME280;61600;48.126;11.542;2023-04-08T11:40:09;95897.94;;;9.09;60.95
73383;BME280;61600;48.126;11.542;2023-04-08T11:42:36;95901.22;;;9.11;61.40
73383;BME280;61600;48.126;11.542;2023-04-08T11:45:10;95907.94;;;8.83;61.64
73383;BME280;61600;48.126;11.542;2023-04-08T11:47:36;95910.31;;;8.69;61.56
73383;BME280;61600;48.126;11.542;2023-04-08T11:50:05;95913.88;;;8.75;61.22
73383;BME280;61600;48.126;11.542;2023-04-08T11:55:06;95912.19;;;8.53;62.23
73383;BME280;61600;48.126;11.542;2023-04-08T11:57:34;95913.25;;;8.52;62.40
73383;BME280;61600;48.126;11.542;2023-04-08T12:00:02;95911.69;;;8.72;62.50
73383;BME280;61600;48.126;11.542;2023-04-08T12:02:30;95910.84;;;8.61;62.35
73383;BME280;61600;48.126;11.542;2023-04-08T12:04:56;95917.94;;;8.77;62.03
73383;BME280;61600;48.126;11.542;2023-04-08T12:07:21;95921.72;;;8.71;61.43
73383;BME280;61600;48.126;11.542;2023-04-08T12:09:47;95925.81;;;8.79;62.01
73383;BME280;61600;48.126;11.542;2023-04-08T12:12:13;95928.00;;;8.82;62.89
73383;BME280;61600;48.126;11.542;2023-04-08T12:14:39;95924.50;;;8.96;61.59
73383;BME280;61600;48.126;11.542;2023-04-08T12:17:04;95929.63;;;8.88;61.38
73383;BME280;61600;48.126;11.542;2023-04-08T12:19:30;95932.03;;;8.74;61.75
73383;BME280;61600;48.126;11.542;2023-04-08T12:21:56;95934.75;;;8.74;62.20
73383;BME280;61600;48.126;11.542;2023-04-08T12:24:22;95926.44;;;8.34;62.81
73383;BME280;61600;48.126;11.542;2023-04-08T12:26:48;95934.94;;;8.47;61.83
73383;BME280;61600;48.126;11.542;2023-04-08T12:29:14;95931.94;;;8.44;62.06
73383;BME280;61600;48.126;11.542;2023-04-08T12:31:40;95936.28;;;8.55;62.07
73383;BME280;61600;48.126;11.542;2023-04-08T12:34:06;95942.28;;;8.57;61.68
73383;BME280;61600;48.126;11.542;2023-04-08T12:36:32;95943.69;;;8.18;62.81
73383;BME280;61600;48.126;11.542;2023-04-08T12:38:57;95935.44;;;8.44;62.50
73383;BME280;61600;48.126;11.542;2023-04-08T12:41:23;95941.44;;;8.51;61.69
73383;BME280;61600;48.126;11.542;2023-04-08T12:43:53;95950.19;;;8.64;62.41
73383;BME280;61600;48.126;11.542;2023-04-08T12:46:19;95930.31;;;8.43;62.10
73383;BME280;61600;48.126;11.542;2023-04-08T12:48:45;95944.63;;;8.38;62.35
73383;BME280;61600;48.126;11.542;2023-04-08T12:51:12;95944.44;;;8.50;61.81
73383;BME280;61600;48.126;11.542;2023-04-08T12:53:38;95942.78;;;8.44;62.64
73383;BME280;61600;48.126;11.542;2023-04-08T12:56:04;95945.41;;;8.34;62.39
73383;BME280;61600;48.126;11.542;2023-04-08T12:58:30;95947.91;;;8.40;62.35
73383;BME280;61600;48.126;11.542;2023-04-08T13:00:56;95945.47;;;8.39;62.44
73383;BME280;61600;48.126;11.542;2023-04-08T13:03:21;95949.00;;;8.44;63.02
73383;BME280;61600;48.126;11.542;2023-04-08T13:05:47;95948.69;;;8.36;62.55
73383;BME280;61600;48.126;11.542;2023-04-08T13:08:13;95950.06;;;8.33;62.43
73383;BME280;61600;48.126;11.542;2023-04-08T13:10:41;95946.41;;;8.18;63.71
73383;BME280;61600;48.126;11.542;2023-04-08T13:13:08;95955.88;;;8.20;63.20
73383;BME280;61600;48.126;11.542;2023-04-08T13:15:34;95952.69;;;8.23;63.98
73383;BME280;61600;48.126;11.542;2023-04-08T13:18:00;95957.00;;;8.24;64.01